createdAt,value
2023-05-10T00:00:25.972Z,9.6
2023-05-10T00:04:21.132Z,11.1
2023-05-10T00:06:26.619Z,13.1
2023-05-10T00:08:24.188Z,9.5
2023-05-10T00:12:19.395Z,11.6
2023-05-10T00:14:16.966Z,13.1
2023-05-10T00:16:14.633Z,11.8
2023-05-10T00:30:05.702Z,13.2
2023-05-10T00:32:03.333Z,14.8
2023-05-10T00:34:08.790Z,13.7
2023-05-10T00:38:04.036Z,16.4
2023-05-10T00:40:01.637Z,16.6
2023-05-10T00:45:54.417Z,17.8
2023-05-10T00:47:59.970Z,15
2023-05-10T00:49:57.555Z,17.6
2023-05-10T00:51:55.142Z,19.5
2023-05-10T00:52:57.899Z,17.3
2023-05-10T00:54:55.493Z,17.8
2023-05-10T00:56:53.106Z,19.6
2023-05-10T00:58:50.713Z,17.1
2023-05-10T01:00:56.311Z,19.3
2023-05-10T01:02:53.858Z,22.2
2023-05-10T01:04:51.505Z,20.8
2023-05-10T01:16:44.957Z,20.5
2023-05-10T01:20:40.155Z,22.7
2023-05-10T01:22:38.118Z,20.6
2023-05-10T01:34:31.635Z,21.6
2023-05-10T01:44:27.511Z,27.1
2023-05-10T01:46:25.147Z,20
2023-05-10T01:47:27.907Z,25.7
2023-05-10T01:49:25.450Z,22.5
2023-05-10T01:51:23.049Z,22.8
2023-05-10T01:53:20.619Z,22.8
2023-05-10T01:55:26.177Z,25.9
2023-05-10T01:57:23.777Z,29.9
2023-05-10T01:59:21.385Z,26.8
2023-05-10T02:07:11.794Z,28.4
2023-05-10T02:09:17.305Z,30.2
2023-05-10T02:17:07.737Z,24.8
2023-05-10T02:19:05.311Z,27
2023-05-10T02:21:02.909Z,30
2023-05-10T02:23:08.415Z,30.4
2023-05-10T02:25:06.004Z,28.1
2023-05-10T02:27:03.620Z,29.5
2023-05-10T02:29:01.230Z,30.5
2023-05-10T02:30:58.808Z,28.1
2023-05-10T02:34:54.034Z,28.5
2023-05-10T02:36:59.553Z,32.3
2023-05-10T02:40:54.732Z,28.4
2023-05-10T02:41:57.477Z,37.3
2023-05-10T02:45:52.708Z,32.9
2023-05-10T02:47:50.306Z,32.6
2023-05-10T02:55:48.610Z,35.2
2023-05-10T02:57:46.174Z,40.4
2023-05-10T02:59:43.906Z,36.1
2023-05-10T03:03:46.907Z,37.8
2023-05-10T03:05:44.512Z,38.2
2023-05-10T03:07:42.136Z,37.8
2023-05-10T03:09:39.725Z,39.3
2023-05-10T03:11:37.319Z,37.1
2023-05-10T03:13:35.003Z,41.6
2023-05-10T03:15:32.543Z,39.8
2023-05-10T03:17:38.082Z,38.7
2023-05-10T03:25:28.463Z,37.1
2023-05-10T03:27:26.077Z,37.8
2023-05-10T03:29:23.700Z,39.9
2023-05-10T03:31:30.770Z,39.6
2023-05-10T03:33:28.313Z,39
2023-05-10T03:35:25.905Z,40.1
2023-05-10T03:39:46.695Z,36.7
2023-05-10T03:43:49.822Z,38.8
2023-05-10T03:47:45.078Z,37.9
2023-05-10T04:03:33.814Z,32.6
2023-05-10T04:05:31.323Z,28.8
2023-05-10T04:07:28.953Z,31.3
2023-05-10T04:09:26.530Z,32.7
2023-05-10T04:13:29.660Z,30.8
2023-05-10T04:15:27.253Z,35.2
2023-05-10T04:17:24.858Z,29.6
2023-05-10T04:21:20.064Z,28.4
2023-05-10T04:23:17.658Z,32.1
2023-05-10T04:25:23.224Z,30.1
2023-05-10T04:27:20.799Z,32.6
2023-05-10T04:29:18.401Z,27.7
2023-05-10T04:30:21.140Z,30.2
2023-05-10T04:36:13.890Z,33.3
2023-05-10T04:42:14.586Z,29.9
2023-05-10T04:44:12.179Z,28.7
2023-05-10T04:48:07.397Z,28.4
2023-05-10T04:50:05.009Z,30.3
2023-05-10T04:52:11.193Z,35.7
2023-05-10T04:58:03.987Z,29.2
2023-05-10T05:07:59.894Z,31.4
2023-05-10T05:11:55.056Z,32.8
2023-05-10T05:15:50.297Z,33.3
2023-05-10T05:17:47.900Z,35.3
2023-05-10T05:19:53.388Z,30.4
2023-05-10T05:21:51.010Z,34
2023-05-10T05:23:48.573Z,35
2023-05-10T05:24:51.334Z,35.2
2023-05-10T05:26:48.938Z,33
2023-05-10T05:28:46.540Z,32.1
2023-05-10T05:30:44.169Z,38
2023-05-10T05:32:49.720Z,36.6
2023-05-10T05:36:44.879Z,34
2023-05-10T05:38:42.492Z,32.1
2023-05-10T05:40:40.073Z,33.3
2023-05-10T05:42:37.680Z,32.3
2023-05-10T05:44:35.276Z,33.7
2023-05-10T05:46:40.757Z,36.2
2023-05-10T05:52:33.564Z,32.8
2023-05-10T05:54:31.189Z,32.2
2023-05-10T06:04:27.185Z,34.5
2023-05-10T06:08:22.263Z,34.3
2023-05-10T06:12:17.457Z,33.1
2023-05-10T06:14:22.974Z,37.1
2023-05-10T06:16:20.574Z,34.3
2023-05-10T06:18:18.180Z,31.9
2023-05-10T06:19:20.900Z,37.2
2023-05-10T06:21:18.509Z,27.3
2023-05-10T06:25:13.722Z,30
2023-05-10T06:27:19.237Z,29.7
2023-05-10T06:37:07.169Z,31.2
2023-05-10T06:45:05.487Z,30.4
2023-05-10T06:47:03.088Z,29.8
2023-05-10T06:49:00.690Z,37.5
2023-05-10T06:50:58.266Z,31.3
2023-05-10T06:52:55.863Z,31.4
2023-05-10T06:55:01.385Z,30.5
2023-05-10T06:56:59.015Z,31
2023-05-10T06:58:56.608Z,30.3
2023-05-10T07:00:54.241Z,29.1
2023-05-10T07:02:51.850Z,32.9
2023-05-10T07:04:49.452Z,30.7
2023-05-10T07:06:47.017Z,29.7
2023-05-10T07:08:52.544Z,35.4
2023-05-10T07:10:50.151Z,33.2
2023-05-10T07:17:12.276Z,31
2023-05-10T07:23:12.983Z,29.5
2023-05-10T07:25:10.573Z,28.8
2023-05-10T07:29:05.761Z,23.8
2023-05-10T07:33:00.961Z,25.2
2023-05-10T07:35:06.510Z,28.6
2023-05-10T07:37:04.087Z,29.5
2023-05-10T07:46:52.016Z,25.2
2023-05-10T07:48:57.613Z,24.9
2023-05-10T07:50:55.129Z,24.8
2023-05-10T07:52:52.729Z,27.7
2023-05-10T07:56:47.938Z,26.2
2023-05-10T07:58:45.533Z,21.7
2023-05-10T08:00:43.121Z,23.8
2023-05-10T08:02:48.704Z,20.3
2023-05-10T08:04:46.205Z,17.7
2023-05-10T08:06:43.777Z,23.6
2023-05-10T08:07:46.538Z,22.7
2023-05-10T08:15:44.811Z,21
2023-05-10T08:19:39.971Z,21.1
2023-05-10T08:21:37.543Z,16.8
2023-05-10T08:23:35.139Z,16.8
2023-05-10T08:25:32.682Z,16.8
2023-05-10T08:27:30.283Z,15.7
2023-05-10T08:29:48.873Z,20.8
2023-05-10T08:31:33.393Z,14.8
2023-05-10T08:33:30.938Z,18.4
2023-05-10T08:35:28.528Z,16.8
2023-05-10T08:37:26.110Z,15.2
2023-05-10T08:39:30.424Z,15.3
2023-05-10T08:41:21.249Z,18.4
2023-05-10T08:43:26.772Z,14.5
2023-05-10T08:45:24.361Z,14.3
2023-05-10T08:53:14.704Z,15.7
2023-05-10T08:55:12.306Z,23.4
2023-05-10T08:57:17.824Z,22.8
2023-05-10T08:59:15.357Z,16.5
2023-05-10T09:01:12.967Z,13.6
2023-05-10T09:02:18.619Z,16.9
2023-05-10T09:04:13.378Z,85.6
2023-05-10T09:16:20.283Z,86.1
2023-05-10T09:35:52.027Z,47.1
2023-05-10T09:39:55.151Z,51.3
2023-05-10T09:41:52.720Z,40
2023-05-10T09:43:50.312Z,55.6
2023-05-10T09:45:47.990Z,34.9
2023-05-10T09:47:45.564Z,40.3
2023-05-10T09:49:43.142Z,49.4
2023-05-10T09:51:48.650Z,40.5
2023-05-10T09:55:43.858Z,39.9
2023-05-10T09:56:46.582Z,18
2023-05-10T09:58:44.197Z,25.7
2023-05-10T10:00:41.767Z,14
2023-05-10T10:02:39.420Z,15.7
2023-05-10T10:04:44.925Z,16.2
2023-05-10T10:06:42.449Z,16.5
2023-05-10T10:10:37.652Z,13.1
2023-05-10T10:12:35.228Z,10.5
2023-05-10T10:14:32.771Z,11.7
2023-05-10T10:16:30.404Z,13.6
2023-05-10T10:20:33.447Z,8.1
2023-05-10T10:22:30.989Z,8.4
2023-05-10T10:24:28.577Z,9
2023-05-10T10:26:26.148Z,8.3
2023-05-10T10:28:24.622Z,9.7
2023-05-10T10:30:21.292Z,8
2023-05-10T10:34:24.376Z,7.9
2023-05-10T10:36:21.991Z,8.6
2023-05-10T10:38:19.553Z,7.4
2023-05-10T10:40:17.116Z,8.7
2023-05-10T10:44:12.238Z,10
2023-05-10T10:48:15.361Z,8.3
2023-05-10T10:52:39.889Z,9.5
2023-05-10T10:54:37.367Z,9.1
2023-05-10T10:56:37.113Z,7.4
2023-05-10T10:58:40.429Z,6
2023-05-10T11:04:33.239Z,6
2023-05-10T11:08:28.344Z,5.2
2023-05-10T11:10:25.916Z,8.5
2023-05-10T11:12:31.414Z,8.4
2023-05-10T11:14:28.989Z,5.2
2023-05-10T11:16:26.704Z,6.3
2023-05-10T11:18:24.100Z,4.5
2023-05-10T11:20:21.705Z,5.9
2023-05-10T11:22:19.237Z,5.7
2023-05-10T11:24:16.849Z,5.2
2023-05-10T11:26:22.270Z,6.7
2023-05-10T11:28:19.864Z,4.4
2023-05-10T11:30:17.670Z,4.2
2023-05-10T11:32:14.985Z,5.3
2023-05-10T11:34:12.532Z,5.6
2023-05-10T11:36:10.083Z,5.3
2023-05-10T11:38:07.680Z,6.5
2023-05-10T11:40:13.187Z,6.4
2023-05-10T11:45:10.901Z,5.9
2023-05-10T11:47:08.486Z,5.2
2023-05-10T11:51:03.580Z,4.3
2023-05-10T11:53:09.086Z,4.8
2023-05-10T11:55:06.631Z,4.5
2023-05-10T11:59:01.752Z,3.6
2023-05-10T12:02:56.923Z,2.7
2023-05-10T12:04:54.450Z,3.2
2023-05-10T12:06:59.890Z,3.7
2023-05-10T12:10:54.960Z,3.4
2023-05-10T12:12:52.541Z,3.2
2023-05-10T12:14:50.064Z,4.2
2023-05-10T12:16:47.677Z,4
2023-05-10T12:18:45.194Z,3.3
2023-05-10T12:20:50.679Z,5.4
2023-05-10T12:22:48.220Z,5.2
2023-05-10T12:24:45.731Z,5.1
2023-05-10T12:26:43.280Z,6.7
2023-05-10T12:30:38.379Z,27.1
2023-05-10T12:32:35.992Z,6.8
2023-05-10T12:39:39.261Z,7.5
2023-05-10T12:41:36.797Z,10
2023-05-10T12:43:34.350Z,8.5
2023-05-10T12:45:31.911Z,9
2023-05-10T12:47:37.435Z,5
2023-05-10T12:51:32.475Z,6.2
2023-05-10T12:53:30.037Z,4.9
2023-05-10T12:55:27.557Z,8.1
2023-05-10T12:57:25.107Z,5.9
2023-05-10T12:59:22.654Z,6.1
2023-05-10T13:01:28.166Z,7
2023-05-10T13:03:25.688Z,7.6
2023-05-10T13:05:23.219Z,6.5
2023-05-10T13:07:20.825Z,7.7
2023-05-10T13:09:18.296Z,6.3
2023-05-10T13:13:13.413Z,7.1
2023-05-10T13:15:18.917Z,6
2023-05-10T13:17:16.531Z,6.4
2023-05-10T13:19:14.151Z,6.4
2023-05-10T13:25:06.669Z,15.4
2023-05-10T13:29:09.703Z,10
2023-05-10T13:34:07.547Z,7.6
2023-05-10T13:36:05.091Z,12.5
2023-05-10T13:38:02.639Z,7.1
2023-05-10T13:40:00.234Z,5.9
2023-05-10T13:42:05.698Z,5.5
2023-05-10T13:44:03.231Z,6.6
2023-05-10T13:46:00.807Z,6.2
2023-05-10T13:47:58.400Z,6
2023-05-10T13:53:50.958Z,6.4
2023-05-10T13:55:56.455Z,6.2
2023-05-10T13:59:51.555Z,6.2
2023-05-10T14:01:49.198Z,4.7
2023-05-10T14:03:46.749Z,6.5
2023-05-10T14:05:44.223Z,7.2
2023-05-10T14:09:47.286Z,6.4
2023-05-10T14:13:42.391Z,6.6
2023-05-10T14:19:35.034Z,8.1
2023-05-10T14:23:38.032Z,7.4
2023-05-10T14:29:59.862Z,6.5
2023-05-10T14:31:57.453Z,5.7
2023-05-10T14:33:54.878Z,6.5
2023-05-10T14:37:57.833Z,4.4
2023-05-10T14:39:55.348Z,6.4
2023-05-10T14:41:52.867Z,9.3
2023-05-10T14:51:49.924Z,5.6
2023-05-10T14:53:47.386Z,5.4
2023-05-10T14:55:44.895Z,6.1
2023-05-10T14:57:42.401Z,4.3
2023-05-10T14:59:39.928Z,5.4
2023-05-10T15:01:37.537Z,7
2023-05-10T15:03:43.017Z,5.9
2023-05-10T15:05:40.475Z,8.6
2023-05-10T15:07:37.990Z,6
2023-05-10T15:09:35.512Z,6.9
2023-05-10T15:11:33.066Z,6.7
2023-05-10T15:13:30.572Z,7.7
2023-05-10T15:19:31.122Z,6.5
2023-05-10T15:21:28.692Z,7.3
2023-05-10T15:22:32.455Z,9.2
2023-05-10T15:40:17.381Z,33.2
2023-05-10T15:42:14.943Z,47.8
2023-05-10T15:48:15.574Z,11.3
2023-05-10T15:50:13.170Z,14
2023-05-10T15:52:10.743Z,14.6
2023-05-10T15:56:05.938Z,14.5
2023-05-10T15:58:11.424Z,10.7
2023-05-10T16:00:09.009Z,9.9
2023-05-10T16:02:06.671Z,11.4
2023-05-10T16:06:01.755Z,13.7
2023-05-10T16:07:59.353Z,12.3
2023-05-10T16:09:56.902Z,12.6
2023-05-10T16:12:02.456Z,12.8
2023-05-10T16:14:00.011Z,11.4
2023-05-10T16:15:57.622Z,14.3
2023-05-10T16:17:00.467Z,23.4
2023-05-10T16:18:57.960Z,31.6
2023-05-10T16:20:55.512Z,23.5
2023-05-10T16:22:53.121Z,14.4
2023-05-10T16:24:58.594Z,15.1
2023-05-10T16:26:56.189Z,11.2
2023-05-10T16:28:53.776Z,10.3
2023-05-10T16:48:37.526Z,15.2
2023-05-10T16:50:35.125Z,28.5
2023-05-10T16:52:40.614Z,13.7
2023-05-10T16:54:38.173Z,16.1
2023-05-10T16:56:35.784Z,9.9
2023-05-10T17:10:26.787Z,12.6
2023-05-10T17:11:29.562Z,12.5
2023-05-10T17:15:24.795Z,11
2023-05-10T17:17:22.315Z,11.2
2023-05-10T17:19:28.523Z,9.6
2023-05-10T17:21:26.065Z,11.9
2023-05-10T17:23:23.639Z,8.8
2023-05-10T17:27:18.825Z,9.5
2023-05-10T17:29:16.435Z,10.6
2023-05-10T17:31:14.001Z,8.7
2023-05-10T17:33:19.490Z,7.6
2023-05-10T17:35:17.327Z,10.7
2023-05-10T17:37:14.641Z,8
2023-05-10T17:45:04.970Z,15.5
2023-05-10T17:47:10.556Z,9.6
2023-05-10T17:49:08.046Z,8.6
2023-05-10T17:56:58.392Z,9.2
2023-05-10T17:58:55.948Z,10.7
2023-05-10T18:01:01.493Z,10.2
2023-05-10T18:04:59.680Z,12.6
2023-05-10T18:15:18.368Z,11
2023-05-10T18:17:15.883Z,8.8
2023-05-10T18:23:08.661Z,10
2023-05-10T18:25:06.236Z,7.3
2023-05-10T18:27:11.758Z,7.4
2023-05-10T18:29:09.358Z,9
2023-05-10T18:31:07.003Z,10.4
2023-05-10T18:33:04.615Z,10.3
2023-05-10T18:35:02.152Z,11.2
2023-05-10T18:38:57.309Z,8.7
2023-05-10T18:43:00.416Z,10.7
2023-05-10T18:44:57.968Z,10.7
2023-05-10T18:46:55.590Z,10.2
2023-05-10T18:48:53.177Z,9.7
2023-05-10T18:50:50.737Z,16.3
2023-05-10T18:52:48.347Z,16.9
2023-05-10T18:54:53.860Z,12.4
2023-05-10T18:56:51.469Z,12.5
2023-05-10T18:59:51.777Z,11.3
2023-05-10T19:01:51.206Z,11.5
2023-05-10T19:03:46.970Z,10.4
2023-05-10T19:05:44.558Z,12.3
2023-05-10T19:07:50.083Z,10.2
2023-05-10T19:09:47.690Z,13.7
2023-05-10T19:11:45.240Z,26.5
2023-05-10T19:13:42.880Z,15.4
2023-05-10T19:15:40.506Z,29.6
2023-05-10T19:19:37.610Z,14.3
2023-05-10T19:21:41.182Z,13.1
2023-05-10T19:31:29.215Z,18.1
2023-05-10T19:33:26.800Z,27
2023-05-10T19:35:32.286Z,85.9
2023-05-10T19:37:29.905Z,30.3
2023-05-10T19:39:27.450Z,16.5
2023-05-10T19:43:22.664Z,13.3
2023-05-10T19:47:17.926Z,11.3
2023-05-10T19:51:20.982Z,12.9
2023-05-10T19:53:18.575Z,11.4
2023-05-10T19:54:21.335Z,12.1
2023-05-10T19:56:18.914Z,11.7
2023-05-10T19:58:16.501Z,14.4
2023-05-10T20:00:14.141Z,15.4
2023-05-10T20:02:19.629Z,13.5
2023-05-10T20:04:17.290Z,12.3
2023-05-10T20:06:14.824Z,13.8
2023-05-10T20:08:12.426Z,13.6
2023-05-10T20:10:10.028Z,14.6
2023-05-10T20:12:07.584Z,13.9
2023-05-10T20:14:05.193Z,11.5
2023-05-10T20:16:10.783Z,13
2023-05-10T20:18:08.376Z,15.7
2023-05-10T20:20:05.908Z,14.3
2023-05-10T20:22:03.516Z,13.2
2023-05-10T20:24:01.124Z,14
2023-05-10T20:30:01.882Z,12.9
2023-05-10T20:31:59.438Z,17.3
2023-05-10T20:35:56.107Z,14.2
2023-05-10T20:39:51.309Z,14.8
2023-05-10T20:41:48.906Z,13.9
2023-05-10T20:43:54.422Z,12.3
2023-05-10T20:45:52.073Z,13.2
2023-05-10T20:47:49.644Z,11
2023-05-10T20:50:49.937Z,13.7
2023-05-10T21:00:45.841Z,14.6
2023-05-10T21:02:43.471Z,12.8
2023-05-10T21:04:41.118Z,14.7
2023-05-10T21:06:38.630Z,13.1
2023-05-10T21:10:41.751Z,12.8
2023-05-10T21:14:36.925Z,13.6
2023-05-10T21:18:32.163Z,9.2
2023-05-10T21:20:29.722Z,12
2023-05-10T21:22:27.309Z,11.3
2023-05-10T21:28:28.001Z,12.8
2023-05-10T21:30:25.600Z,12.9
2023-05-10T21:32:23.210Z,11.8
2023-05-10T21:40:21.464Z,10.3
2023-05-10T21:44:45.908Z,11.2
2023-05-10T21:50:46.640Z,13.1
2023-05-10T21:52:44.260Z,14.2
2023-05-10T21:54:41.822Z,11.9
2023-05-10T21:56:39.429Z,11.1
2023-05-10T21:58:37.070Z,11.4
2023-05-10T22:00:34.643Z,10
2023-05-10T22:02:32.315Z,9.8
2023-05-10T22:04:37.728Z,7.9
2023-05-10T22:06:35.347Z,11
2023-05-10T22:08:32.896Z,11.3
2023-05-10T22:10:30.525Z,10.5
2023-05-10T22:12:28.096Z,10.4
2023-05-10T22:14:25.677Z,11.3
2023-05-10T22:18:28.811Z,12.4
2023-05-10T22:22:23.960Z,11.2
2023-05-10T22:24:21.564Z,12.2
2023-05-10T22:26:19.139Z,11.1
2023-05-10T22:30:14.359Z,11.6
2023-05-10T22:37:17.907Z,12.4
2023-05-10T22:39:15.401Z,10.8
2023-05-10T22:43:10.591Z,9.6
2023-05-10T22:45:16.161Z,11.4
2023-05-10T23:01:04.872Z,10.7
2023-05-10T23:03:02.491Z,10
2023-05-10T23:05:00.074Z,11.1
2023-05-10T23:06:57.651Z,9.4
2023-05-10T23:10:52.845Z,11.7
2023-05-10T23:12:58.359Z,11.9
2023-05-10T23:14:55.970Z,9.9
2023-05-10T23:16:53.545Z,10.2
2023-05-10T23:20:48.774Z,10.8
2023-05-10T23:24:43.928Z,11.5
2023-05-10T23:26:49.444Z,9.9
2023-05-10T23:28:47.036Z,11.1
2023-05-10T23:30:44.637Z,11.5
2023-05-10T23:31:47.433Z,12.1
2023-05-10T23:33:45.007Z,11.8
2023-05-10T23:35:42.629Z,11.6
2023-05-10T23:39:45.759Z,11.9
2023-05-10T23:41:43.331Z,12.1
2023-05-10T23:45:38.530Z,10.7
2023-05-10T23:47:36.104Z,13
2023-05-10T23:49:33.697Z,10.9
2023-05-10T23:53:36.776Z,11.4
